martes, 11 de enero de 2011

Día 32 (2 de Enero de 2011)

Bueno, pues nada mejor que empezar el año con un vuelo de instrucción con el que hago mi hora 17.

Hoy he vuelto a repasar maniobras y he empezado con tomas y despegues en Casarrubios. No es nada fácil y más si tienes viento en cola que te hace planear y planear y planear sobre la pista... Resultado: 4 intentos y solo 1 toma :-(

METAR LEVS 020800Z 00000KT 9999 SCT025 BKN050 07/05 Q1019



En fin, esperemos que el próximo día sea mejor.

Buenos vuelos

No hay comentarios:

Publicar un comentario

Gonzalo Flores. Con la tecnología de Blogger.

Lo más visto este mes...

Lo más visto...

Email

Email

Formulario de contacto

Nombre

Correo electrónico *

Mensaje *

2014 © Planer - Responsive Blogger Magazine Theme
Planer theme by Way2themes